Westlock, Canada
Current Conditions -  °F | °C
As of 4:00 AM on Tuesday 21 Oct 2014 (Local Time) from CZVL Reporting Station
Clear Clear  
Wind Chill: 44°   Ceiling: Unl
Heat Index: 48°   Visibility: 9mi
Dew Point: 39°   Wind: 9mph
Humidity: 71%   Direction: 280°W
Pressure: 29.57"   Gusts: NA
Location:  54.15°N, 113.87°W
Report Text: CZVL 211000Z AUTO 28008KT 9SM CLR 09/04 A2957 RMK SLP017 DENSITY ALT 2400FT
Loading
Personal Weather Stations






























Interactive Weather Map
Tropical Storm Tracking
New forecast layout! Learn more

10-Day Weather Forecast

Advertisements
Track Severe Weather on mobile